Data for 09/25/2013

Time Sea-Level Adjusted Pressure Absolute Pressure Temperature Relative Humidity Dew Point   
(mb) (inHg) (mb) (inHg) (C) (F) (%) (C) (F)
00:05 1010 29.83 840 24.81 4.4 39.9 88 2.6 36.8
00:10 1010 29.83 840 24.81 4.5 40 89 2.9 37.2
00:15 1010 29.83 840 24.81 4.3 39.8 89 2.7 36.8
00:20 1010 29.83 840 24.81 4.5 40 89 2.8 37.1
00:25 1010 29.83 839 24.78 4.3 39.7 91 2.8 37.1
00:30 1010 29.83 839 24.78 4.1 39.5 91 2.8 37.1
00:35 1010 29.83 840 24.81 4.2 39.5 90 2.7 36.9
00:40 1011 29.85 840 24.81 4.3 39.7 90 2.7 36.9
00:45 1011 29.85 840 24.81 4.3 39.8 89 2.6 36.8
00:50 1011 29.85 840 24.81 4.5 40 87 2.6 36.6
00:55 1011 29.85 840 24.81 4.7 40.4 86 2.5 36.4
01:00 1011 29.85 840 24.81 4.8 40.6 87 2.8 37
01:05 1011 29.85 840 24.81 4.7 40.5 88 2.8 37.1
01:10 1011 29.85 840 24.81 4.8 40.6 87 2.8 37.1
01:15 1011 29.85 840 24.81 4.8 40.7 89 3.1 37.6
01:20 1011 29.85 840 24.81 4.7 40.4 89 3 37.4
01:25 1011 29.85 840 24.81 4.6 40.2 88 2.8 37
01:30 1011 29.85 840 24.81 4.6 40.3 88 2.8 37
01:35 1011 29.85 840 24.81 4.7 40.4 87 2.7 36.8
01:40 1011 29.85 840 24.81 4.7 40.4 89 3 37.4
01:45 1011 29.85 840 24.81 4.8 40.6 86 2.6 36.7
01:50 1011 29.85 840 24.81 4.9 40.9 88 3.1 37.5
01:55 1011 29.85 840 24.81 5 40.9 88 3.1 37.6
02:00 1011 29.85 840 24.81 4.9 40.8 88 3.1 37.5
02:05 1010 29.83 840 24.81 4.8 40.7 89 3.2 37.7
02:10 1010 29.83 839 24.78 4.8 40.6 90 3.2 37.8
02:15 1010 29.83 839 24.78 4.8 40.6 90 3.3 38
02:20 1010 29.83 839 24.78 4.8 40.6 90 3.3 38
02:25 1010 29.83 839 24.78 4.6 40.3 90 3.2 37.7
02:30 1010 29.83 839 24.78 4.4 39.9 91 3.1 37.5
02:35 1010 29.83 839 24.78 4.3 39.8 92 3.1 37.5
02:40 1010 29.83 839 24.78 4.3 39.8 91 3.1 37.5
02:45 1010 29.83 839 24.78 4.3 39.8 92 3.2 37.7
02:50 1010 29.83 839 24.78 4.3 39.7 92 3.1 37.6
02:55 1010 29.83 839 24.78 4.3 39.7 92 3.1 37.6
03:00 1010 29.83 839 24.78 4.2 39.6 92 3.1 37.5
03:05 1010 29.83 839 24.78 4.2 39.6 92 3.1 37.6
03:10 1010 29.83 839 24.78 4.3 39.8 92 3.1 37.7
03:15 1010 29.83 839 24.78 4.3 39.7 92 3.2 37.7
03:20 1010 29.83 839 24.78 4.2 39.6 93 3.1 37.6
03:25 1010 29.83 839 24.78 4.2 39.6 93 3.2 37.7
03:30 1010 29.83 839 24.78 4.2 39.5 93 3.2 37.7
03:35 1010 29.83 839 24.78 4.1 39.3 93 3.1 37.6
03:40 1010 29.83 839 24.78 4 39.2 94 3.1 37.5
03:45 1010 29.83 839 24.78 3.9 39 94 3 37.5
03:50 1009 29.8 839 24.78 3.8 38.9 95 3 37.5
03:55 1009 29.8 839 24.78 3.8 38.9 95 3.1 37.5
04:00 1009 29.8 838 24.75 3.8 38.9 94 3 37.4
04:05 1009 29.8 838 24.75 3.9 38.9 94 3 37.3
04:10 1009 29.8 839 24.78 3.9 39 93 2.9 37.2
04:15 1009 29.8 839 24.78 4 39.1 93 2.9 37.2
04:20 1009 29.8 839 24.78 4.1 39.3 91 2.8 37.1
04:25 1009 29.8 839 24.78 4.3 39.7 91 2.9 37.2
04:30 1009 29.8 839 24.78 4.5 40.1 91 3.1 37.5
04:35 1010 29.83 839 24.78 4.6 40.3 91 3.2 37.8
04:40 1010 29.83 839 24.78 4.6 40.4 90 3.2 37.8
04:45 1010 29.83 839 24.78 4.8 40.6 91 3.4 38.1
04:50 1010 29.83 839 24.78 4.8 40.6 91 3.5 38.3
04:55 1009 29.8 839 24.78 4.7 40.5 92 3.6 38.4
05:00 1009 29.8 838 24.75 4.7 40.5 93 3.6 38.5
05:05 1009 29.8 838 24.75 4.5 40 94 3.5 38.3
05:10 1009 29.8 838 24.75 4.2 39.6 94 3.4 38.1
05:15 1009 29.8 838 24.75 4.2 39.6 95 3.4 38.1
05:20 1009 29.8 838 24.75 4.1 39.4 95 3.4 38.1
05:25 1009 29.8 838 24.75 4.1 39.4 95 3.4 38.1
05:30 1009 29.8 838 24.75 4.1 39.4 95 3.4 38
05:35 1009 29.8 838 24.75 4.1 39.4 95 3.3 38
05:40 1009 29.8 838 24.75 4 39.1 95 3.2 37.8
05:45 1009 29.8 838 24.75 4.1 39.3 95 3.3 38
05:50 1009 29.8 838 24.75 4.1 39.4 95 3.4 38
05:55 1009 29.8 838 24.75 4 39.3 95 3.2 37.8
06:00 1009 29.8 838 24.75 4 39.2 94 3.2 37.8
06:05 1009 29.8 838 24.75 4 39.2 94 3.1 37.6
06:10 1008 29.77 838 24.75 3.9 39.1 94 3 37.4
06:15 1009 29.8 838 24.75 3.7 38.7 94 2.8 37.1
06:20 1009 29.8 838 24.75 3.5 38.3 94 2.7 36.8
06:25 1009 29.8 838 24.75 3.2 37.8 95 2.5 36.4
06:30 1009 29.8 838 24.75 3 37.5 95 2.3 36.1
06:35 1008 29.77 838 24.75 3 37.4 95 2.3 36.1
06:40 1008 29.77 838 24.75 3.1 37.5 94 2.3 36.1
06:45 1008 29.77 838 24.75 3.3 37.9 93 2.3 36.1
06:50 1008 29.77 838 24.75 3.4 38.1 92 2.2 36
06:55 1008 29.77 837 24.72 3.5 38.3 92 2.3 36.1
07:00 1008 29.77 837 24.72 3.7 38.7 90 2.3 36.1
07:05 1008 29.77 837 24.72 3.9 39.1 88 2.1 35.8
07:10 1008 29.77 837 24.72 4.4 39.8 86 2.2 36
07:15 1008 29.77 837 24.72 4.6 40.3 86 2.5 36.5
07:20 1008 29.77 837 24.72 4.8 40.7 86 2.7 36.8
07:25 1008 29.77 838 24.75 4.9 40.8 85 2.5 36.6
07:30 1009 29.8 838 24.75 4.7 40.5 85 2.4 36.3
07:35 1009 29.8 838 24.75 4.6 40.2 88 2.7 36.9
07:40 1009 29.8 838 24.75 4.4 39.9 90 2.9 37.2
07:45 1009 29.8 838 24.75 4.3 39.7 91 2.9 37.2
07:50 1009 29.8 838 24.75 4.2 39.5 93 3.1 37.6
07:55 1009 29.8 838 24.75 4.3 39.7 93 3.3 38
08:00 1009 29.8 838 24.75 4.4 39.9 93 3.4 38
08:05 1009 29.8 838 24.75 4.5 40.1 92 3.3 37.9
08:10 1009 29.8 838 24.75 4.6 40.3 91 3.3 37.9
08:15 1009 29.8 838 24.75 4.7 40.4 90 3.2 37.8
08:20 1009 29.8 838 24.75 4.8 40.6 90 3.3 37.9
08:25 1008 29.77 838 24.75 4.9 40.7 89 3.3 37.9
08:30 1008 29.77 837 24.72 4.7 40.5 91 3.4 38.2
08:35 1008 29.77 837 24.72 4.6 40.3 92 3.3 38
08:40 1008 29.77 837 24.72 4.6 40.4 92 3.4 38.1
08:45 1008 29.77 837 24.72 4.8 40.6 92 3.5 38.3
08:50 1008 29.77 838 24.75 4.9 40.8 92 3.6 38.5
08:55 1009 29.8 838 24.75 5.1 41.2 89 3.5 38.3
09:00 1009 29.8 838 24.75 5.3 41.6 88 3.5 38.3
09:05 1009 29.8 838 24.75 5.5 42 88 3.7 38.6
09:10 1009 29.8 838 24.75 5.5 41.9 87 3.5 38.3
09:15 1008 29.77 838 24.75 5.2 41.4 88 3.3 38
09:20 1008 29.77 838 24.75 5.3 41.5 88 3.5 38.2
09:25 1008 29.77 837 24.72 5.6 42 89 3.8 38.9
09:30 1008 29.77 837 24.72 5.8 42.5 87 3.8 38.9
09:35 1008 29.77 837 24.72 6 42.7 87 4 39.2
09:40 1008 29.77 837 24.72 6.3 43.3 86 4.1 39.4
09:45 1008 29.77 837 24.72 6.4 43.5 85 4 39.3
09:50 1008 29.77 837 24.72 6.5 43.7 85 4.2 39.5
09:55 1008 29.77 837 24.72 6.7 44.1 83 4 39.2
10:00 1008 29.77 838 24.75 6.8 44.3 82 3.9 39.1
10:05 1008 29.77 838 24.75 6.8 44.2 82 3.9 39
10:10 1008 29.77 838 24.75 6.9 44.4 82 4 39.2
10:15 1008 29.77 837 24.72 7 44.6 82 4.2 39.5
10:20 1008 29.77 837 24.72 6.6 43.9 85 4.3 39.7
10:25 1008 29.77 837 24.72 6.3 43.4 86 4.2 39.5
10:30 1008 29.77 837 24.72 6.5 43.7 85 4.3 39.7
10:35 1008 29.77 837 24.72 6.8 44.2 83 4 39.3
10:40 1008 29.77 837 24.72 6.5 43.7 85 4.1 39.4
10:45 1008 29.77 837 24.72 6.3 43.3 86 4.1 39.4
10:50 1008 29.77 837 24.72 6.4 43.6 83 3.8 38.8
10:55 1008 29.77 837 24.72 6.4 43.6 85 4.2 39.5
11:00 1008 29.77 837 24.72 6.6 43.9 84 4.1 39.5
11:05 1008 29.77 837 24.72 6.7 44 85 4.4 39.9
11:10 1008 29.77 837 24.72 6.5 43.6 88 4.6 40.2
11:15 1008 29.77 837 24.72 6.7 44.1 82 4 39.1
11:20 1008 29.77 837 24.72 6.8 44.2 82 4 39.2
11:25 1008 29.77 837 24.72 7.1 44.8 81 4.1 39.4
11:30 1008 29.77 837 24.72 7.3 45.1 81 4.3 39.7
11:35 1008 29.77 837 24.72 7.3 45.1 81 4.2 39.6
11:40 1008 29.77 837 24.72 7.1 44.9 82 4.3 39.7
11:45 1008 29.77 837 24.72 6.8 44.2 84 4.3 39.7
11:50 1008 29.77 837 24.72 6.5 43.6 83 3.8 38.9
11:55 1008 29.77 837 24.72 6.6 44 85 4.2 39.6
12:00 1008 29.77 837 24.72 6.6 43.8 84 4.1 39.4
12:05 1008 29.77 837 24.72 6.6 43.9 83 3.9 39
12:10 1008 29.77 837 24.72 6.8 44.3 81 3.8 38.8
12:15 1008 29.77 837 24.72 6.6 43.9 83 3.9 39
12:20 1008 29.77 837 24.72 6.7 44.1 81 3.6 38.5
12:25 1008 29.77 837 24.72 6.9 44.5 82 4 39.2
12:30 1008 29.77 837 24.72 6.9 44.4 77 3.1 37.7
12:35 1008 29.77 837 24.72 7.2 44.9 73 2.7 36.9
12:40 1008 29.77 837 24.72 7.4 45.3 79 4.1 39.4
12:45 1008 29.77 837 24.72 7.3 45.1 76 3.3 38
12:50 1007 29.74 837 24.72 7.1 44.8 81 4 39.3
12:55 1007 29.74 837 24.72 7 44.6 81 4 39.2
13:00 1007 29.74 837 24.72 7 44.6 83 4.3 39.7
13:05 1007 29.74 836 24.69 7 44.5 81 4 39.2
13:10 1007 29.74 836 24.69 6.9 44.3 84 4.3 39.7
13:15 1007 29.74 836 24.69 7 44.7 84 4.4 40
13:20 1007 29.74 836 24.69 6.9 44.4 85 4.6 40.3
13:25 1007 29.74 836 24.69 7 44.5 85 4.6 40.2
13:30 1007 29.74 836 24.69 7.1 44.7 78 3.6 38.4
13:35 1007 29.74 836 24.69 7.3 45.1 76 3.4 38.1
13:40 1007 29.74 836 24.69 7.5 45.5 73 3.1 37.5
13:45 1007 29.74 836 24.69 7.6 45.6 73 3.1 37.5
13:50 1007 29.74 836 24.69 7.7 45.9 73 3.1 37.6
13:55 1007 29.74 836 24.69 7.8 46.1 73 3.3 38
14:00 1007 29.74 836 24.69 7.8 46 71 2.8 37.1
14:05 1007 29.74 836 24.69 7.7 45.9 71 2.9 37.2
14:10 1007 29.74 836 24.69 7.7 45.9 71 2.8 37.1
14:15 1007 29.74 836 24.69 7.8 46 71 2.9 37.1
14:20 1007 29.74 836 24.69 7.8 46 72 3.1 37.5
14:25 1007 29.74 836 24.69 7.8 46.1 71 2.9 37.3
14:30 1007 29.74 836 24.69 7.8 46.1 71 2.9 37.3
14:35 1007 29.74 836 24.69 7.9 46.2 71 3 37.3
14:40 1007 29.74 836 24.69 7.9 46.3 71 3 37.4
14:45 1007 29.74 836 24.69 7.9 46.2 72 3.2 37.8
14:50 1007 29.74 836 24.69 8 46.4 71 3.1 37.5
14:55 1007 29.74 836 24.69 8 46.3 71 3 37.3
15:00 1007 29.74 836 24.69 8 46.3 70 2.9 37.1
15:05 1007 29.74 836 24.69 8 46.3 69 2.6 36.7
15:10 1007 29.74 836 24.69 8.1 46.5 69 2.8 37
15:15 1007 29.74 836 24.69 8.2 46.7 69 2.9 37.3
15:20 1007 29.74 836 24.69 8.3 46.9 68 2.7 36.9
15:25 1007 29.74 836 24.69 8.2 46.8 67 2.5 36.5
15:30 1007 29.74 836 24.69 8.2 46.7 68 2.7 36.9
15:35 1007 29.74 836 24.69 8.3 46.9 66 2.4 36.2
15:40 1006 29.71 836 24.69 8.4 47 65 2.1 35.8
15:45 1007 29.74 836 24.69 8.3 47 66 2.3 36.2
15:50 1007 29.74 836 24.69 8.3 46.9 66 2.3 36.1
15:55 1007 29.74 836 24.69 8.2 46.8 66 2.2 36
16:00 1007 29.74 836 24.69 8.2 46.8 66 2.3 36.1
16:05 1007 29.74 836 24.69 8.2 46.7 66 2.3 36.1
16:10 1007 29.74 836 24.69 8.2 46.7 67 2.5 36.5
16:15 1007 29.74 836 24.69 8.2 46.7 67 2.5 36.5
16:20 1007 29.74 836 24.69 8.3 46.9 68 2.7 36.9
16:25 1007 29.74 836 24.69 8.3 47 68 2.7 36.8
16:30 1007 29.74 836 24.69 8.2 46.8 68 2.8 37
16:35 1007 29.74 836 24.69 8.1 46.6 69 2.7 36.9
16:40 1007 29.74 836 24.69 8 46.5 68 2.5 36.5
16:45 1007 29.74 836 24.69 8 46.4 69 2.7 36.8
16:50 1007 29.74 836 24.69 7.9 46.3 69 2.6 36.7
16:55 1007 29.74 836 24.69 7.9 46.1 70 2.8 37
17:00 1007 29.74 836 24.69 7.8 46 70 2.8 37
17:05 1007 29.74 836 24.69 7.8 46 72 3.1 37.5
17:10 1007 29.74 836 24.69 7.6 45.7 73 3.2 37.7
17:15 1007 29.74 836 24.69 7.4 45.3 74 3 37.4
17:20 1007 29.74 836 24.69 7.2 45 75 3.1 37.5
17:25 1007 29.74 836 24.69 7.1 44.8 76 3.2 37.7
17:30 1007 29.74 836 24.69 7 44.6 77 3.2 37.8
17:35 1007 29.74 836 24.69 6.9 44.4 78 3.3 38
17:40 1007 29.74 836 24.69 6.7 44.1 80 3.6 38.5
17:45 1007 29.74 836 24.69 6.5 43.8 82 3.8 38.8
17:50 1007 29.74 836 24.69 6.4 43.5 81 3.4 38.1
17:55 1007 29.74 836 24.69 6.4 43.6 81 3.5 38.3
18:00 1007 29.74 836 24.69 6.4 43.6 82 3.6 38.5
18:05 1007 29.74 836 24.69 6.2 43.2 83 3.5 38.3
18:10 1007 29.74 836 24.69 6.1 42.9 84 3.6 38.5
18:15 1007 29.74 836 24.69 5.9 42.6 86 3.7 38.7
18:20 1007 29.74 836 24.69 5.7 42.3 86 3.6 38.5
18:25 1007 29.74 836 24.69 5.6 42.2 87 3.7 38.6
18:30 1007 29.74 836 24.69 5.6 42 87 3.6 38.5
18:35 1007 29.74 836 24.69 5.6 42 87 3.6 38.6
18:40 1007 29.74 836 24.69 5.5 41.9 87 3.4 38.2
18:45 1007 29.74 836 24.69 5.4 41.6 87 3.3 38
18:50 1007 29.74 836 24.69 5.3 41.5 85 3 37.5
18:55 1007 29.74 836 24.69 5.3 41.5 83 2.7 36.8
19:00 1007 29.74 836 24.69 5.2 41.4 83 2.6 36.7
19:05 1007 29.74 836 24.69 5.2 41.4 83 2.6 36.8
19:10 1007 29.74 837 24.72 5.2 41.4 83 2.6 36.6
19:15 1007 29.74 837 24.72 5.2 41.4 82 2.5 36.5
19:20 1007 29.74 837 24.72 5.2 41.4 83 2.5 36.5
19:25 1008 29.77 837 24.72 5.2 41.4 83 2.7 36.8
19:30 1008 29.77 837 24.72 5.3 41.5 84 2.7 36.9
19:35 1008 29.77 837 24.72 5.3 41.5 84 2.7 36.9
19:40 1008 29.77 837 24.72 5.4 41.7 83 2.8 37
19:45 1008 29.77 838 24.75 5.5 41.9 85 3.2 37.7
19:50 1009 29.8 838 24.75 5.4 41.8 84 2.9 37.2
19:55 1009 29.8 838 24.75 5.1 41.2 78 1.6 35
20:00 1009 29.8 838 24.75 4.9 40.8 80 1.7 35.1
20:05 1009 29.8 838 24.75 4.5 40 81 1.5 34.7
20:10 1009 29.8 838 24.75 4.3 39.7 81 1.4 34.5
20:15 1009 29.8 838 24.75 4.3 39.7 81 1.3 34.4
20:20 1009 29.8 838 24.75 4.3 39.7 82 1.4 34.6
20:25 1009 29.8 838 24.75 4.3 39.7 85 2 35.7
20:30 1008 29.77 838 24.75 4.2 39.5 85 1.9 35.5
20:35 1008 29.77 838 24.75 4 39.2 87 2 35.6
20:40 1009 29.8 838 24.75 3.8 38.8 89 2.1 35.8
20:45 1009 29.8 838 24.75 3.7 38.7 88 1.9 35.4
20:50 1009 29.8 838 24.75 3.8 38.8 88 2 35.5
20:55 1009 29.8 838 24.75 3.7 38.7 87 1.8 35.3
21:00 1009 29.8 838 24.75 3.7 38.7 87 1.7 35
21:05 1009 29.8 838 24.75 3.7 38.7 87 1.8 35.2
21:10 1009 29.8 838 24.75 3.7 38.6 86 1.5 34.7
21:15 1009 29.8 838 24.75 3.7 38.7 87 1.8 35.3
21:20 1009 29.8 838 24.75 3.8 38.8 88 2 35.7
21:25 1009 29.8 838 24.75 3.7 38.7 87 1.8 35.2
21:30 1009 29.8 839 24.78 3.9 39 88 2 35.6
21:35 1009 29.8 839 24.78 3.9 39.1 86 1.8 35.3
21:40 1009 29.8 839 24.78 4 39.1 89 2.3 36.2
21:45 1010 29.83 839 24.78 3.6 38.5 91 2.3 36.1
21:50 1010 29.83 839 24.78 3.6 38.5 92 2.4 36.3
21:55 1010 29.83 839 24.78 3.7 38.7 91 2.4 36.4
22:00 1010 29.83 839 24.78 3.8 38.9 90 2.4 36.3
22:05 1010 29.83 839 24.78 3.9 38.9 89 2.3 36.1
22:10 1010 29.83 839 24.78 3.8 38.8 90 2.2 36
22:15 1010 29.83 839 24.78 3.7 38.7 90 2.2 36
22:20 1010 29.83 839 24.78 3.7 38.6 90 2.2 35.9
22:25 1010 29.83 839 24.78 3.7 38.6 90 2.2 35.9
22:30 1010 29.83 839 24.78 3.6 38.6 91 2.3 36.1
22:35 1010 29.83 839 24.78 3.7 38.6 90 2.2 36
22:40 1010 29.83 839 24.78 3.7 38.6 90 2.2 35.9
22:45 1010 29.83 839 24.78 3.7 38.6 89 2.1 35.8
22:50 1010 29.83 839 24.78 3.5 38.3 91 2.1 35.8
22:55 1010 29.83 839 24.78 3.5 38.3 90 2 35.6
23:00 1010 29.83 839 24.78 3.6 38.4 89 1.9 35.4
23:05 1010 29.83 839 24.78 3.6 38.5 89 1.9 35.4
23:10 1010 29.83 839 24.78 3.6 38.5 88 1.8 35.2
23:15 1010 29.83 839 24.78 3.6 38.5 88 1.8 35.2
23:20 1010 29.83 839 24.78 3.5 38.3 88 1.7 35
23:25 1010 29.83 839 24.78 3.4 38.2 89 1.7 35.1
23:30 1010 29.83 839 24.78 3.4 38.1 88 1.6 34.9
23:35 1010 29.83 839 24.78 3.3 38 90 1.8 35.2
23:40 1010 29.83 839 24.78 3.3 37.9 89 1.7 35
23:45 1010 29.83 839 24.78 3.2 37.8 89 1.6 34.8
23:50 1010 29.83 839 24.78 3.2 37.8 89 1.5 34.8
23:55 1010 29.83 839 24.78 3.2 37.8 89 1.5 34.7
24:00 1010 29.83 839 24.78 3.2 37.8 89 1.5 34.7